Estación Meteorológica Peña el Pijo (Robertgarden) [ 12/11/19 23:04:34 CET ]

Fecha Hora Presion(HPa) Temp (°C) Humedad % Rocio (°C) Viento ( m/s) Direccion Lluvia 1Hora(mm) Lluvia 24H(mm) LLuvia Total(mm)
2019-Aug-17 01:01:48 1012.500 16.1 65 9.5         363.34
2019-Aug-17 02:01:52 1012.100 15.2 67 9.1         363.34
2019-Aug-17 03:01:36 1011.900 15.3 67 9.2         363.34
2019-Aug-17 04:01:37 1011.500 16.9 62 9.6         363.34
2019-Aug-17 05:01:22 1011.800 17.0 61 9.4         363.34
2019-Aug-17 06:01:46 1012.000 17.9 59 9.7         363.34
2019-Aug-17 07:02:04 1012.300 20.1 56 11.0         363.34
2019-Aug-17 08:01:11 1012.400 25.9 51 15.0         363.34
2019-Aug-17 09:01:49 1012.400 31.4 36 14.4         363.34
2019-Aug-17 10:01:46 1012.100 33.9 29 13.3         363.34
2019-Aug-17 11:01:52 1011.800 34.7 25 11.5         363.34
2019-Aug-17 12:01:42 1011.400 36.4 23 11.8 1.5 NW     363.34
2019-Aug-17 13:01:49 1011.200 37.7 20 11.0         363.34
2019-Aug-17 14:01:48 1010.300 38.3 20 11.4         363.34
2019-Aug-17 15:01:48 1009.800 37.9 18 9.1         363.34
2019-Aug-17 16:01:59 1009.900 33.2 27 11.5         363.34
2019-Aug-17 17:01:47 1009.700 32.4 27 10.8         363.34
2019-Aug-17 18:01:51 1009.800 30.8 28 10.0         363.34
2019-Aug-17 19:01:44 1009.900 28.8 29 8.9         363.34
2019-Aug-17 20:01:46 1010.400 26.4 34 9.2         363.34
2019-Aug-17 21:01:49 1010.700 22.9 41 8.9         363.34
2019-Aug-17 22:01:56 1010.800 20.3 47 8.6         363.34
2019-Aug-17 23:01:44 1011.100 18.9 51 8.6         363.34

Temperatura Máxima:38°    Temperatura Mínima:15°
Presión Máxima:1012.500 Hpa    Presión Mínima:1009.700 Hpa


Volver